createdAt,value
2022-08-09T00:01:43.049Z,98.83
2022-08-09T00:05:03.698Z,99.16
2022-08-09T00:08:32.224Z,99.43
2022-08-09T00:12:02.950Z,99.42
2022-08-09T00:14:56.969Z,99.10
2022-08-09T00:18:05.171Z,99.63
2022-08-09T00:21:13.384Z,100.00
2022-08-09T00:24:15.059Z,99.74
2022-08-09T00:27:16.538Z,100.00
2022-08-09T00:30:26.186Z,100.00
2022-08-09T00:33:51.156Z,100.00
2022-08-09T00:36:53.474Z,100.00
2022-08-09T00:40:13.568Z,100.00
2022-08-09T00:44:13.882Z,100.00
2022-08-09T00:46:57.475Z,100.00
2022-08-09T00:49:59.344Z,100.00
2022-08-09T00:53:01.010Z,100.00
2022-08-09T00:56:12.853Z,100.00
2022-08-09T00:59:15.314Z,100.00
2022-08-09T01:02:34.198Z,100.00
2022-08-09T01:06:17.397Z,100.00
2022-08-09T01:09:37.436Z,100.00
2022-08-09T01:13:07.882Z,100.00
2022-08-09T01:16:11.117Z,100.00
2022-08-09T01:19:39.676Z,100.00
2022-08-09T01:24:02.150Z,100.00
2022-08-09T01:27:08.074Z,100.00
2022-08-09T01:30:28.809Z,100.00
2022-08-09T01:33:38.187Z,100.00
2022-08-09T01:36:41.839Z,100.00
2022-08-09T01:39:48.596Z,100.00
2022-08-09T01:42:51.043Z,100.00
2022-08-09T01:45:58.015Z,100.00
2022-08-09T01:49:10.732Z,100.00
2022-08-09T01:52:17.757Z,100.00
2022-08-09T01:55:22.363Z,100.00
2022-08-09T01:58:26.371Z,100.00
2022-08-09T02:01:59.898Z,100.00
2022-08-09T02:05:05.151Z,100.00
2022-08-09T02:08:41.161Z,100.00
2022-08-09T02:11:42.660Z,100.00
2022-08-09T02:14:52.021Z,100.00
2022-08-09T02:18:00.749Z,100.00
2022-08-09T02:21:17.253Z,100.00
2022-08-09T02:24:27.479Z,100.00
2022-08-09T02:27:57.293Z,100.00
2022-08-09T02:31:02.196Z,100.00
2022-08-09T02:34:41.036Z,100.00
2022-08-09T02:37:38.236Z,100.00
2022-08-09T02:40:41.134Z,100.00
2022-08-09T02:43:54.975Z,100.00
2022-08-09T02:47:01.094Z,100.00
2022-08-09T02:50:07.393Z,100.00
2022-08-09T02:53:26.264Z,100.00
2022-08-09T02:56:31.483Z,100.00
2022-08-09T02:59:36.907Z,100.00
2022-08-09T03:02:58.052Z,100.00
2022-08-09T03:06:03.061Z,100.00
2022-08-09T03:09:06.445Z,100.00
2022-08-09T03:12:11.276Z,100.00
2022-08-09T03:15:16.184Z,100.00
2022-08-09T03:18:19.127Z,100.00
2022-08-09T03:21:36.575Z,100.00
2022-08-09T03:24:51.917Z,100.00
2022-08-09T03:27:55.376Z,100.00
2022-08-09T03:30:57.802Z,100.00
2022-08-09T03:34:00.574Z,100.00
2022-08-09T03:37:54.784Z,100.00
2022-08-09T03:40:24.795Z,100.00
2022-08-09T03:43:31.408Z,100.00
2022-08-09T03:46:34.194Z,100.00
2022-08-09T03:49:36.401Z,100.00
2022-08-09T03:52:40.192Z,100.00
2022-08-09T03:55:43.716Z,100.00
2022-08-09T03:58:46.156Z,100.00
2022-08-09T04:01:53.142Z,100.00
2022-08-09T04:05:01.057Z,100.00
2022-08-09T04:08:07.159Z,100.00
2022-08-09T04:11:11.282Z,100.00
2022-08-09T04:14:53.085Z,100.00
2022-08-09T04:17:34.392Z,100.00
2022-08-09T04:20:35.920Z,100.00
2022-08-09T04:23:37.932Z,100.00
2022-08-09T04:26:41.269Z,100.00
2022-08-09T04:29:50.175Z,100.00
2022-08-09T04:32:52.044Z,100.00
2022-08-09T04:35:53.624Z,100.00
2022-08-09T04:39:04.555Z,100.00
2022-08-09T04:42:06.274Z,100.00
2022-08-09T04:45:11.295Z,100.00
2022-08-09T04:48:12.753Z,100.00
2022-08-09T04:51:14.366Z,100.00
2022-08-09T04:54:18.011Z,100.00
2022-08-09T04:57:24.155Z,100.00
2022-08-09T05:00:26.104Z,100.00
2022-08-09T05:03:42.891Z,100.00
2022-08-09T05:06:45.545Z,100.00
2022-08-09T05:09:52.021Z,100.00
2022-08-09T05:12:53.604Z,100.00
2022-08-09T05:15:57.028Z,100.00
2022-08-09T05:19:00.242Z,100.00
2022-08-09T05:22:02.025Z,100.00
2022-08-09T05:25:05.254Z,100.00
2022-08-09T05:28:06.729Z,100.00
2022-08-09T05:31:09.685Z,100.00
2022-08-09T05:34:16.856Z,100.00
2022-08-09T05:37:18.971Z,100.00
2022-08-09T05:40:20.471Z,100.00
2022-08-09T05:43:23.388Z,100.00
2022-08-09T05:46:25.021Z,100.00
2022-08-09T05:50:23.610Z,90.67
2022-08-09T05:52:53.637Z,80.33
2022-08-09T05:55:56.395Z,77.66
2022-08-09T05:58:58.501Z,81.11
2022-08-09T06:02:00.292Z,76.94
2022-08-09T06:05:03.731Z,74.85
2022-08-09T06:08:09.033Z,76.59
2022-08-09T06:11:17.338Z,78.45
2022-08-09T06:14:19.441Z,81.94
2022-08-09T06:17:20.907Z,82.16
2022-08-09T06:20:22.356Z,75.59
2022-08-09T06:23:57.658Z,72.52
2022-08-09T06:26:46.459Z,76.50
2022-08-09T06:30:04.291Z,79.88
2022-08-09T06:33:30.059Z,83.07
2022-08-09T06:36:31.371Z,86.00
2022-08-09T06:39:39.681Z,86.32
2022-08-09T06:42:54.516Z,87.98
2022-08-09T06:46:05.040Z,86.31
2022-08-09T06:49:09.444Z,86.69
2022-08-09T06:52:12.094Z,86.45
2022-08-09T06:55:23.089Z,86.26
2022-08-09T06:58:40.748Z,86.10
2022-08-09T07:01:54.610Z,82.97
2022-08-09T07:05:00.715Z,82.37
2022-08-09T07:08:02.184Z,77.21
2022-08-09T07:11:06.746Z,76.42
2022-08-09T07:14:08.803Z,76.96
2022-08-09T07:17:10.291Z,78.42
2022-08-09T07:20:13.619Z,76.72
2022-08-09T07:23:19.206Z,75.40
2022-08-09T07:26:21.125Z,71.16
2022-08-09T07:29:25.137Z,66.64
2022-08-09T07:32:32.393Z,62.48
2022-08-09T07:35:39.673Z,58.25
2022-08-09T07:39:01.052Z,55.54
2022-08-09T07:42:05.086Z,52.79
2022-08-09T07:45:14.951Z,53.31
2022-08-09T07:48:29.793Z,52.33
2022-08-09T07:52:04.613Z,51.93
2022-08-09T07:54:53.968Z,53.50
2022-08-09T07:57:55.652Z,51.64
2022-08-09T08:01:06.666Z,48.32
2022-08-09T08:04:12.770Z,49.25
2022-08-09T08:08:43.396Z,50.10
2022-08-09T08:10:35.762Z,49.07
2022-08-09T08:13:41.262Z,49.75
2022-08-09T08:16:57.882Z,48.26
2022-08-09T08:20:12.632Z,47.73
2022-08-09T08:23:16.853Z,45.35
2022-08-09T08:26:19.290Z,44.73
2022-08-09T08:29:48.434Z,44.38
2022-08-09T08:32:53.810Z,44.33
2022-08-09T08:36:00.254Z,42.02
2022-08-09T08:39:05.345Z,43.06
2022-08-09T08:42:07.225Z,45.98
2022-08-09T08:45:11.896Z,42.19
2022-08-09T08:48:19.352Z,42.94
2022-08-09T08:51:24.852Z,43.09
2022-08-09T08:54:29.722Z,46.34
2022-08-09T08:57:34.722Z,47.37
2022-08-09T09:00:36.622Z,45.84
2022-08-09T09:03:42.633Z,44.34
2022-08-09T09:06:47.214Z,44.35
2022-08-09T09:09:59.476Z,46.03
2022-08-09T09:13:09.543Z,44.88
2022-08-09T09:16:11.229Z,43.43
2022-08-09T09:22:54.369Z,40.75
2022-08-09T09:26:01.381Z,43.76
2022-08-09T09:29:11.026Z,43.73
2022-08-09T09:32:32.380Z,41.37
2022-08-09T09:36:02.600Z,42.27
2022-08-09T09:39:08.878Z,43.71
2022-08-09T09:42:24.309Z,41.55
2022-08-09T09:45:29.298Z,41.52
2022-08-09T09:48:32.368Z,43.58
2022-08-09T09:51:38.504Z,43.95
2022-08-09T09:54:48.860Z,42.14
2022-08-09T09:58:16.126Z,39.45
2022-08-09T10:01:31.319Z,41.47
2022-08-09T10:04:40.193Z,40.53
2022-08-09T10:08:10.856Z,39.12
2022-08-09T10:14:48.499Z,39.85
2022-08-09T10:17:55.895Z,41.22
2022-08-09T10:21:10.941Z,36.97
2022-08-09T10:24:16.018Z,39.98
2022-08-09T10:27:34.606Z,41.09
2022-08-09T10:32:07.076Z,37.55
2022-08-09T10:34:08.338Z,41.12
2022-08-09T10:37:13.962Z,41.70
2022-08-09T10:40:35.095Z,40.78
2022-08-09T10:43:47.004Z,37.31
2022-08-09T10:48:16.359Z,39.93
2022-08-09T10:51:20.068Z,38.82
2022-08-09T10:54:31.963Z,40.63
2022-08-09T10:57:37.792Z,40.06
2022-08-09T11:01:11.098Z,40.06
2022-08-09T11:04:30.706Z,40.54
2022-08-09T11:07:57.693Z,39.69
2022-08-09T11:11:00.959Z,40.32
2022-08-09T11:14:44.095Z,41.04
2022-08-09T11:17:48.156Z,38.58
2022-08-09T11:20:55.439Z,40.12
2022-08-09T11:24:01.457Z,40.00
2022-08-09T11:28:05.077Z,37.76
2022-08-09T11:30:57.199Z,39.08
2022-08-09T11:34:06.310Z,39.80
2022-08-09T11:37:18.169Z,40.77
2022-08-09T11:40:19.965Z,42.43
2022-08-09T11:43:27.396Z,40.37
2022-08-09T11:46:52.641Z,42.42
2022-08-09T11:50:56.945Z,44.25
2022-08-09T11:53:58.972Z,44.06
2022-08-09T11:56:48.155Z,43.35
2022-08-09T11:59:52.416Z,43.32
2022-08-09T12:02:56.625Z,42.93
2022-08-09T12:06:01.409Z,43.02
2022-08-09T12:09:15.025Z,44.69
2022-08-09T12:12:28.741Z,42.59
2022-08-09T12:15:49.084Z,42.66
2022-08-09T12:18:53.962Z,42.92
2022-08-09T12:22:00.996Z,44.08
2022-08-09T12:25:16.136Z,42.37
2022-08-09T12:29:11.083Z,43.33
2022-08-09T12:32:02.198Z,44.50
2022-08-09T12:35:12.553Z,45.51
2022-08-09T12:38:29.591Z,45.26
2022-08-09T12:41:40.551Z,42.93
2022-08-09T12:44:46.443Z,42.96
2022-08-09T12:47:53.661Z,41.94
2022-08-09T12:50:56.432Z,42.50
2022-08-09T12:54:00.944Z,40.44
2022-08-09T12:57:03.166Z,40.51
2022-08-09T13:00:25.453Z,39.49
2022-08-09T13:03:53.841Z,42.05
2022-08-09T13:06:56.702Z,40.04
2022-08-09T13:10:04.128Z,37.33
2022-08-09T13:13:09.998Z,39.47
2022-08-09T13:16:13.764Z,40.90
2022-08-09T13:20:10.428Z,42.67
2022-08-09T13:23:05.846Z,40.46
2022-08-09T13:26:40.997Z,41.82
2022-08-09T13:30:03.759Z,43.59
2022-08-09T13:33:24.491Z,42.90
2022-08-09T13:36:40.806Z,41.76
2022-08-09T13:41:55.827Z,42.28
2022-08-09T13:43:09.441Z,44.02
2022-08-09T13:47:13.038Z,42.46
2022-08-09T13:49:39.610Z,43.14
2022-08-09T13:52:55.620Z,43.31
2022-08-09T13:55:57.843Z,44.56
2022-08-09T13:58:59.284Z,42.08
2022-08-09T14:02:02.480Z,40.01
2022-08-09T14:05:05.376Z,41.17
2022-08-09T14:08:07.020Z,41.26
2022-08-09T14:11:16.239Z,41.46
2022-08-09T14:14:23.623Z,43.35
2022-08-09T14:17:26.647Z,43.34
2022-08-09T14:20:48.941Z,44.83
2022-08-09T14:23:54.071Z,47.13
2022-08-09T14:26:57.932Z,46.26
2022-08-09T14:30:22.039Z,45.64
2022-08-09T14:33:21.575Z,43.12
2022-08-09T14:36:23.162Z,43.45
2022-08-09T14:39:45.445Z,42.50
2022-08-09T14:42:48.516Z,44.25
2022-08-09T14:46:58.523Z,43.68
2022-08-09T14:49:11.666Z,44.84
2022-08-09T14:52:16.767Z,46.76
2022-08-09T14:55:20.189Z,46.33
2022-08-09T14:58:22.458Z,46.17
2022-08-09T15:01:24.691Z,48.03
2022-08-09T15:04:27.350Z,47.25
2022-08-09T15:07:28.808Z,48.07
2022-08-09T15:10:32.753Z,47.53
2022-08-09T15:13:55.973Z,47.71
2022-08-09T15:16:55.807Z,47.63
2022-08-09T15:20:02.361Z,47.48
2022-08-09T15:24:00.954Z,47.51
2022-08-09T15:26:31.386Z,47.95
2022-08-09T15:30:55.791Z,46.80
2022-08-09T15:32:55.300Z,47.91
2022-08-09T15:36:01.470Z,48.79
2022-08-09T15:39:03.397Z,48.55
2022-08-09T15:42:05.825Z,49.31
2022-08-09T15:45:09.927Z,48.96
2022-08-09T15:48:29.345Z,49.99
2022-08-09T15:52:01.938Z,49.13
2022-08-09T15:54:54.465Z,49.88
2022-08-09T15:57:55.944Z,50.40
2022-08-09T16:00:57.463Z,49.30
2022-08-09T16:03:59.217Z,49.41
2022-08-09T16:07:02.296Z,49.48
2022-08-09T16:10:05.515Z,49.94
2022-08-09T16:13:20.803Z,49.83
2022-08-09T16:16:28.703Z,51.14
2022-08-09T16:19:30.462Z,51.11
2022-08-09T16:22:42.377Z,50.42
2022-08-09T16:25:50.120Z,51.26
2022-08-09T16:28:51.558Z,51.66
2022-08-09T16:32:19.979Z,52.07
2022-08-09T16:35:39.196Z,52.11
2022-08-09T16:38:36.813Z,52.58
2022-08-09T16:42:04.163Z,52.15
2022-08-09T16:45:01.097Z,52.44
2022-08-09T16:48:38.013Z,52.98
2022-08-09T16:51:24.760Z,53.11
2022-08-09T16:54:34.095Z,53.90
2022-08-09T16:58:08.416Z,53.91
2022-08-09T17:00:57.977Z,54.00
2022-08-09T17:03:59.459Z,53.95
2022-08-09T17:08:43.201Z,54.62
2022-08-09T17:10:22.496Z,54.42
2022-08-09T17:13:24.012Z,55.27
2022-08-09T17:16:38.360Z,54.71
2022-08-09T17:19:47.687Z,54.84
2022-08-09T17:23:02.140Z,55.09
2022-08-09T17:26:04.268Z,54.44
2022-08-09T17:29:11.741Z,54.99
2022-08-09T17:32:26.567Z,55.31
2022-08-09T17:35:41.327Z,55.44
2022-08-09T17:38:57.497Z,56.27
2022-08-09T17:42:01.301Z,56.16
2022-08-09T17:45:03.977Z,56.99
2022-08-09T17:48:08.096Z,58.10
2022-08-09T17:51:17.837Z,57.73
2022-08-09T17:54:25.378Z,58.39
2022-08-09T17:58:03.007Z,58.91
2022-08-09T18:00:55.054Z,59.82
2022-08-09T18:04:01.190Z,59.62
2022-08-09T18:07:23.665Z,59.97
2022-08-09T18:10:25.338Z,61.24
2022-08-09T18:13:43.000Z,62.04
2022-08-09T18:16:50.365Z,63.37
2022-08-09T18:20:59.458Z,64.14
2022-08-09T18:24:08.795Z,64.59
2022-08-09T18:26:34.763Z,65.29
2022-08-09T18:30:39.734Z,65.72
2022-08-09T18:33:01.377Z,66.07
2022-08-09T18:36:06.816Z,66.25
2022-08-09T18:39:16.002Z,66.16
2022-08-09T18:42:18.436Z,66.94
2022-08-09T18:46:49.153Z,66.80
2022-08-09T18:48:45.175Z,67.41
2022-08-09T18:51:55.432Z,67.75
2022-08-09T18:55:00.313Z,68.41
2022-08-09T18:58:02.119Z,68.98
2022-08-09T19:01:03.626Z,69.73
2022-08-09T19:04:08.542Z,69.71
2022-08-09T19:07:10.286Z,70.46
2022-08-09T19:10:16.904Z,71.17
2022-08-09T19:13:38.254Z,71.59
2022-08-09T19:16:50.114Z,72.68
2022-08-09T19:19:51.892Z,72.97
2022-08-09T19:23:02.566Z,73.70
2022-08-09T19:26:07.058Z,74.20
2022-08-09T19:29:15.676Z,74.45
2022-08-09T19:32:22.300Z,75.20
2022-08-09T19:35:28.454Z,75.60
2022-08-09T19:38:50.436Z,76.58
2022-08-09T19:41:53.713Z,76.41
2022-08-09T19:44:58.115Z,76.92
2022-08-09T19:48:03.120Z,77.40
2022-08-09T19:51:05.200Z,77.89
2022-08-09T19:54:06.942Z,78.47
2022-08-09T19:57:09.274Z,78.83
2022-08-09T20:00:11.522Z,78.65
2022-08-09T20:04:09.596Z,79.45
2022-08-09T20:06:39.806Z,78.91
2022-08-09T20:09:45.922Z,79.10
2022-08-09T20:12:47.535Z,79.46
2022-08-09T20:16:38.340Z,78.64
2022-08-09T20:19:49.363Z,79.13
2022-08-09T20:22:37.757Z,78.79
2022-08-09T20:25:51.975Z,78.32
2022-08-09T20:28:57.708Z,78.65
2022-08-09T20:32:31.341Z,78.28
2022-08-09T20:35:21.895Z,78.90
2022-08-09T20:38:33.975Z,79.69
2022-08-09T20:41:44.902Z,79.77
2022-08-09T20:44:50.870Z,80.30
2022-08-09T20:48:06.185Z,80.85
2022-08-09T20:51:19.145Z,81.13
2022-08-09T20:54:21.332Z,81.76
2022-08-09T20:57:39.486Z,81.77
2022-08-09T21:00:49.544Z,82.11
2022-08-09T21:05:49.421Z,82.43
2022-08-09T21:07:38.466Z,82.20
2022-08-09T21:10:42.119Z,81.82
2022-08-09T21:13:59.267Z,81.95
2022-08-09T21:17:01.574Z,81.70
2022-08-09T21:20:25.916Z,81.28
2022-08-09T21:23:47.769Z,80.99
2022-08-09T21:26:49.494Z,80.54
2022-08-09T21:29:50.914Z,80.66
2022-08-09T21:32:53.378Z,80.56
2022-08-09T21:35:54.780Z,80.51
2022-08-09T21:39:00.997Z,80.51
2022-08-09T21:42:10.208Z,80.34
2022-08-09T21:45:15.759Z,80.44
2022-08-09T21:48:18.916Z,80.67
2022-08-09T21:51:35.730Z,80.61
2022-08-09T21:54:37.940Z,80.47
2022-08-09T21:57:59.483Z,80.70
2022-08-09T22:01:01.988Z,81.01
2022-08-09T22:04:03.662Z,81.11
2022-08-09T22:07:05.197Z,80.76
2022-08-09T22:10:08.590Z,80.94
2022-08-09T22:13:11.247Z,81.38
2022-08-09T22:16:13.095Z,81.05
2022-08-09T22:19:57.681Z,81.00
2022-08-09T22:22:38.388Z,81.01
2022-08-09T22:26:06.104Z,81.17
2022-08-09T22:29:07.226Z,80.71
2022-08-09T22:32:12.550Z,81.00
2022-08-09T22:36:01.310Z,81.03
2022-08-09T22:39:10.864Z,81.49
2022-08-09T22:42:32.328Z,81.51
2022-08-09T22:48:15.665Z,81.76
2022-08-09T22:49:01.735Z,81.41
2022-08-09T22:52:11.373Z,82.03
2022-08-09T22:55:21.726Z,82.37
2022-08-09T22:58:33.134Z,81.89
2022-08-09T23:01:35.474Z,81.93
2022-08-09T23:04:38.283Z,82.31
2022-08-09T23:08:22.096Z,81.83
2022-08-09T23:11:01.410Z,81.84
2022-08-09T23:14:03.529Z,81.95
2022-08-09T23:17:05.527Z,81.81
2022-08-09T23:20:08.450Z,82.57
2022-08-09T23:23:09.982Z,82.36
2022-08-09T23:26:11.453Z,82.62
2022-08-09T23:29:12.937Z,82.45
2022-08-09T23:32:14.572Z,82.73
2022-08-09T23:35:16.042Z,82.96
2022-08-09T23:38:18.498Z,83.24
2022-08-09T23:41:29.103Z,83.07
2022-08-09T23:44:30.906Z,83.16
2022-08-09T23:47:32.344Z,82.93
2022-08-09T23:50:33.916Z,83.21
2022-08-09T23:53:37.614Z,83.20
2022-08-09T23:56:54.131Z,82.77
2022-08-09T23:59:56.911Z,82.73
